createdAt,value
2023-01-19T00:01:27.270Z,94.72
2023-01-19T00:03:54.732Z,86.63
2023-01-19T00:06:21.956Z,72.43
2023-01-19T00:08:52.262Z,77.47
2023-01-19T00:11:19.841Z,74.15
2023-01-19T00:13:50.739Z,73.32
2023-01-19T00:16:19.422Z,77.35
2023-01-19T00:18:47.505Z,87.53
2023-01-19T00:21:14.972Z,78.65
2023-01-19T00:23:43.827Z,78.65
2023-01-19T00:26:11.069Z,78.47
2023-01-19T00:28:38.460Z,81.20
2023-01-19T00:31:07.326Z,78.07
2023-01-19T00:33:35.096Z,79.22
2023-01-19T00:36:02.213Z,116.05
2023-01-19T00:38:29.819Z,88.68
2023-01-19T00:40:56.981Z,93.72
2023-01-19T00:43:24.365Z,81.53
2023-01-19T00:45:51.559Z,75.80
2023-01-19T00:48:19.178Z,70.10
2023-01-19T00:50:47.640Z,77.60
2023-01-19T00:53:15.114Z,65.40
2023-01-19T00:55:42.255Z,95.95
2023-01-19T00:58:09.941Z,113.70
2023-01-19T01:00:37.387Z,107.05
2023-01-19T01:03:05.325Z,82.90
2023-01-19T01:05:32.933Z,68.57
2023-01-19T01:08:00.446Z,113.45
2023-01-19T01:10:29.516Z,87.88
2023-01-19T01:13:23.746Z,74.03
2023-01-19T01:15:44.302Z,84.10
2023-01-19T01:18:11.697Z,93.65
2023-01-19T01:20:38.831Z,87.20
2023-01-19T01:23:06.250Z,76.25
2023-01-19T01:25:37.749Z,68.05
2023-01-19T01:28:08.695Z,92.32
2023-01-19T01:30:40.047Z,122.45
2023-01-19T01:33:08.285Z,104.97
2023-01-19T01:35:35.436Z,74.15
2023-01-19T01:38:02.982Z,78.43
2023-01-19T01:40:30.341Z,78.18
2023-01-19T01:42:58.093Z,76.45
2023-01-19T01:45:35.329Z,79.40
2023-01-19T01:48:12.626Z,79.50
2023-01-19T01:51:24.483Z,73.07
2023-01-19T01:54:06.801Z,85.05
2023-01-19T01:56:43.833Z,80.63
2023-01-19T01:59:39.222Z,78.78
2023-01-19T02:02:29.873Z,72.22
2023-01-19T02:05:05.896Z,76.05
2023-01-19T02:08:02.294Z,77.15
2023-01-19T02:10:48.486Z,80.60
2023-01-19T02:13:21.715Z,76.72
2023-01-19T02:15:52.339Z,80.97
2023-01-19T02:18:24.670Z,76.13
2023-01-19T02:20:57.888Z,76.32
2023-01-19T02:23:45.193Z,75.32
2023-01-19T02:26:22.189Z,75.60
2023-01-19T02:28:57.582Z,76.93
2023-01-19T02:31:27.261Z,72.20
2023-01-19T02:33:56.102Z,78.82
2023-01-19T02:36:27.258Z,76.05
2023-01-19T02:38:57.637Z,85.95
2023-01-19T02:41:29.057Z,83.18
2023-01-19T02:43:58.015Z,73.38
2023-01-19T02:46:25.886Z,72.03
2023-01-19T02:48:53.060Z,65.45
2023-01-19T02:51:24.115Z,84.03
2023-01-19T02:54:08.647Z,76.72
2023-01-19T02:56:51.008Z,73.78
2023-01-19T02:59:26.742Z,75.22
2023-01-19T03:02:24.650Z,78.93
2023-01-19T03:05:12.582Z,73.43
2023-01-19T03:07:53.276Z,79.50
2023-01-19T03:11:05.564Z,75.10
2023-01-19T03:13:54.031Z,78.10
2023-01-19T03:16:27.877Z,83.35
2023-01-19T03:19:01.705Z,73.47
2023-01-19T03:21:30.871Z,94.93
2023-01-19T03:24:03.067Z,78.60
2023-01-19T03:26:36.637Z,86.68
2023-01-19T03:29:06.986Z,82.22
2023-01-19T03:31:35.532Z,72.97
2023-01-19T03:34:07.995Z,76.40
2023-01-19T03:36:44.444Z,80.53
2023-01-19T03:39:15.699Z,76.20
2023-01-19T03:41:45.185Z,78.70
2023-01-19T03:44:13.728Z,77.28
2023-01-19T03:46:41.429Z,81.60
2023-01-19T03:49:09.965Z,79.07
2023-01-19T03:51:40.206Z,84.93
2023-01-19T03:54:09.628Z,76.45
2023-01-19T03:56:37.722Z,71.88
2023-01-19T03:59:08.058Z,75.88
2023-01-19T04:01:35.272Z,66.20
2023-01-19T04:04:02.736Z,74.82
2023-01-19T04:06:30.192Z,74.32
2023-01-19T04:08:57.627Z,70.95
2023-01-19T04:11:24.781Z,74.45
2023-01-19T04:13:52.206Z,67.15
2023-01-19T04:16:21.264Z,70.35
2023-01-19T04:18:49.514Z,73.97
2023-01-19T04:21:17.162Z,69.35
2023-01-19T04:23:46.008Z,74.53
2023-01-19T04:26:13.432Z,75.20
2023-01-19T04:28:41.110Z,70.53
2023-01-19T04:31:08.674Z,72.45
2023-01-19T04:33:36.132Z,67.45
2023-01-19T04:36:04.213Z,70.82
2023-01-19T04:38:31.668Z,71.18
2023-01-19T04:40:58.802Z,77.00
2023-01-19T04:43:26.272Z,70.55
2023-01-19T04:45:53.404Z,71.57
2023-01-19T04:48:20.868Z,72.28
2023-01-19T04:50:48.031Z,72.22
2023-01-19T04:53:16.550Z,66.28
2023-01-19T04:55:44.049Z,68.45
2023-01-19T04:58:11.425Z,69.80
2023-01-19T05:00:38.730Z,67.68
2023-01-19T05:03:06.447Z,69.35
2023-01-19T05:05:34.165Z,74.07
2023-01-19T05:08:01.761Z,70.05
2023-01-19T05:10:29.154Z,69.20
2023-01-19T05:12:57.019Z,70.72
2023-01-19T05:15:24.261Z,71.80
2023-01-19T05:17:52.944Z,73.10
2023-01-19T05:20:20.082Z,79.00
2023-01-19T05:22:51.624Z,74.65
2023-01-19T05:25:19.274Z,75.55
2023-01-19T05:27:46.845Z,72.57
2023-01-19T05:30:14.581Z,75.45
2023-01-19T05:32:42.080Z,75.20
2023-01-19T05:35:09.768Z,84.45
2023-01-19T05:37:37.192Z,81.03
2023-01-19T05:40:05.170Z,73.80
2023-01-19T05:42:33.016Z,70.78
2023-01-19T05:45:00.406Z,76.75
2023-01-19T05:47:30.055Z,74.57
2023-01-19T05:49:57.685Z,71.50
2023-01-19T05:52:25.262Z,76.45
2023-01-19T05:54:54.651Z,81.55
2023-01-19T05:57:23.007Z,71.68
2023-01-19T05:59:50.321Z,72.35
2023-01-19T06:02:18.147Z,76.47
2023-01-19T06:04:45.309Z,76.60
2023-01-19T06:07:12.725Z,82.43
2023-01-19T06:09:39.925Z,77.55
2023-01-19T06:12:07.495Z,85.57
2023-01-19T06:14:36.935Z,87.68
2023-01-19T06:17:06.170Z,81.07
2023-01-19T06:19:34.667Z,90.72
2023-01-19T06:22:02.829Z,88.45
2023-01-19T06:24:30.269Z,97.82
2023-01-19T06:26:57.641Z,95.80
2023-01-19T06:29:25.894Z,99.35
2023-01-19T06:31:54.641Z,99.13
2023-01-19T06:34:21.940Z,98.40
2023-01-19T06:36:50.694Z,101.35
2023-01-19T06:39:17.970Z,100.20
2023-01-19T06:41:45.520Z,106.88
2023-01-19T06:44:12.793Z,106.60
2023-01-19T06:46:40.285Z,109.97
2023-01-19T06:49:08.095Z,117.72
2023-01-19T06:51:35.720Z,121.32
2023-01-19T06:54:03.093Z,122.55
2023-01-19T06:56:30.531Z,125.32
2023-01-19T06:58:58.115Z,121.15
2023-01-19T07:01:26.906Z,136.73
2023-01-19T07:03:54.572Z,131.98
2023-01-19T07:06:22.175Z,124.22
2023-01-19T07:08:49.367Z,134.98
2023-01-19T07:11:25.713Z,128.18
2023-01-19T07:13:58.015Z,113.20
2023-01-19T07:16:25.579Z,117.45
2023-01-19T07:18:52.913Z,109.72
2023-01-19T07:21:20.473Z,98.20
2023-01-19T07:23:51.888Z,118.60
2023-01-19T07:26:21.389Z,130.77
2023-01-19T07:28:49.761Z,122.90
2023-01-19T07:31:18.338Z,113.60
2023-01-19T07:33:46.769Z,133.50
2023-01-19T07:36:15.354Z,121.10
2023-01-19T07:38:42.526Z,128.05
2023-01-19T07:41:10.628Z,126.25
2023-01-19T07:43:37.935Z,117.32
2023-01-19T07:46:08.444Z,141.20
2023-01-19T07:48:35.802Z,154.75
2023-01-19T07:51:05.759Z,151.65
2023-01-19T07:53:33.140Z,148.75
2023-01-19T07:56:00.722Z,124.22
2023-01-19T07:58:28.234Z,131.40
2023-01-19T08:00:55.815Z,128.85
2023-01-19T08:03:23.218Z,136.50
2023-01-19T08:05:52.729Z,159.13
2023-01-19T08:08:20.341Z,163.63
2023-01-19T08:10:51.072Z,148.90
2023-01-19T08:13:18.703Z,165.68
2023-01-19T08:15:50.524Z,164.23
2023-01-19T08:18:18.239Z,180.70
2023-01-19T08:20:46.112Z,159.80
2023-01-19T08:23:13.253Z,170.38
2023-01-19T08:25:46.539Z,192.77
2023-01-19T08:28:16.180Z,151.35
2023-01-19T08:30:45.013Z,164.15
2023-01-19T08:33:13.345Z,157.23
2023-01-19T08:35:43.167Z,141.60
2023-01-19T08:38:10.895Z,152.25
2023-01-19T08:40:40.607Z,135.45
2023-01-19T08:43:16.582Z,156.38
2023-01-19T08:45:48.218Z,130.13
2023-01-19T08:48:16.994Z,142.07
2023-01-19T08:50:47.130Z,131.32
2023-01-19T08:53:14.738Z,122.47
2023-01-19T08:55:42.775Z,118.57
2023-01-19T08:58:10.170Z,109.63
2023-01-19T09:00:39.323Z,131.88
2023-01-19T09:03:09.621Z,142.98
2023-01-19T09:05:38.708Z,107.57
2023-01-19T09:08:09.216Z,158.95
2023-01-19T09:10:38.082Z,95.22
2023-01-19T09:13:08.295Z,89.47
2023-01-19T09:15:37.692Z,100.60
2023-01-19T09:18:07.433Z,96.78
2023-01-19T09:20:36.225Z,96.97
2023-01-19T09:23:03.892Z,89.05
2023-01-19T09:25:32.700Z,106.65
2023-01-19T09:28:00.840Z,81.40
2023-01-19T09:30:28.546Z,88.80
2023-01-19T09:32:55.685Z,94.68
2023-01-19T09:35:23.076Z,92.15
2023-01-19T09:37:50.390Z,85.22
2023-01-19T09:40:20.603Z,96.90
2023-01-19T09:42:56.260Z,96.50
2023-01-19T09:45:39.756Z,96.78
2023-01-19T09:48:33.522Z,103.88
2023-01-19T09:51:07.672Z,119.03
2023-01-19T09:54:04.595Z,114.03
2023-01-19T09:56:33.013Z,104.45
2023-01-19T09:59:01.608Z,101.43
2023-01-19T10:01:46.848Z,100.97
2023-01-19T10:04:41.427Z,113.30
2023-01-19T10:07:08.936Z,109.35
2023-01-19T10:10:13.193Z,117.47
2023-01-19T10:13:17.956Z,99.38
2023-01-19T10:16:09.692Z,113.10
2023-01-19T10:18:48.590Z,122.40
2023-01-19T10:21:37.851Z,149.63
2023-01-19T10:24:16.213Z,141.82
2023-01-19T10:26:48.696Z,144.57
2023-01-19T10:29:21.655Z,134.57
2023-01-19T10:31:51.855Z,122.85
2023-01-19T10:34:23.083Z,140.15
2023-01-19T10:36:57.647Z,103.85
2023-01-19T10:39:25.106Z,111.65
2023-01-19T10:41:53.845Z,103.60
2023-01-19T10:44:27.011Z,88.53
2023-01-19T10:46:57.466Z,81.80
2023-01-19T10:49:37.994Z,84.03
2023-01-19T10:52:07.588Z,75.10
2023-01-19T10:54:37.484Z,81.50
2023-01-19T10:57:08.036Z,126.18
2023-01-19T10:59:37.169Z,69.13
2023-01-19T11:02:26.601Z,62.83
2023-01-19T11:04:55.798Z,59.85
2023-01-19T11:07:25.780Z,59.13
2023-01-19T11:10:17.789Z,60.75
2023-01-19T11:13:12.604Z,59.53
2023-01-19T11:15:55.188Z,61.60
2023-01-19T11:18:31.663Z,55.40
2023-01-19T11:21:06.444Z,58.67
2023-01-19T11:23:35.003Z,54.00
2023-01-19T11:26:05.572Z,49.88
2023-01-19T11:28:40.474Z,48.38
2023-01-19T11:31:11.621Z,54.33
2023-01-19T11:33:50.574Z,45.35
2023-01-19T11:36:24.301Z,49.35
2023-01-19T11:38:57.020Z,44.45
2023-01-19T11:41:33.598Z,55.72
2023-01-19T11:44:23.716Z,47.03
2023-01-19T11:46:56.626Z,48.92
2023-01-19T11:49:46.868Z,46.20
2023-01-19T11:52:34.729Z,52.42
2023-01-19T11:55:33.282Z,44.40
2023-01-19T11:58:02.708Z,55.50
2023-01-19T12:00:45.535Z,52.60
2023-01-19T12:03:21.308Z,51.20
2023-01-19T12:05:53.173Z,45.92
2023-01-19T12:08:30.088Z,50.40
2023-01-19T12:10:59.942Z,41.05
2023-01-19T12:13:30.347Z,48.70
2023-01-19T12:16:13.009Z,43.38
2023-01-19T12:18:46.067Z,90.43
2023-01-19T12:21:13.674Z,60.00
2023-01-19T12:23:53.582Z,78.53
2023-01-19T12:26:22.979Z,45.85
2023-01-19T12:28:52.556Z,49.05
2023-01-19T12:31:22.092Z,48.40
2023-01-19T12:33:50.469Z,51.67
2023-01-19T12:36:26.751Z,44.67
2023-01-19T12:38:55.167Z,50.45
2023-01-19T12:41:47.248Z,46.08
2023-01-19T12:44:21.449Z,47.42
2023-01-19T12:46:50.213Z,44.30
2023-01-19T12:49:22.573Z,48.15
2023-01-19T12:51:52.056Z,52.88
2023-01-19T12:54:29.856Z,40.42
2023-01-19T12:57:02.204Z,52.75
2023-01-19T12:59:34.781Z,47.05
2023-01-19T13:08:07.822Z,72.43
2023-01-19T13:11:00.092Z,46.95
2023-01-19T13:13:38.244Z,47.58
2023-01-19T13:16:21.234Z,49.65
2023-01-19T13:19:15.400Z,46.05
2023-01-19T13:21:48.462Z,51.97
2023-01-19T13:24:19.107Z,44.70
2023-01-19T13:26:49.369Z,41.03
2023-01-19T13:29:39.797Z,42.38
2023-01-19T13:32:16.003Z,40.63
2023-01-19T13:34:49.571Z,42.97
2023-01-19T13:37:39.382Z,47.67
2023-01-19T13:40:07.648Z,53.17
2023-01-19T13:42:40.859Z,45.55
2023-01-19T13:45:34.508Z,44.35
2023-01-19T13:48:06.493Z,39.78
2023-01-19T13:50:37.346Z,45.38
2023-01-19T13:53:20.761Z,42.28
2023-01-19T13:55:48.175Z,37.80
2023-01-19T13:58:26.045Z,38.08
2023-01-19T14:00:53.213Z,45.92
2023-01-19T14:03:23.722Z,44.45
2023-01-19T14:05:53.435Z,44.42
2023-01-19T14:08:22.324Z,52.20
2023-01-19T14:10:56.315Z,47.05
2023-01-19T14:13:26.329Z,50.20
2023-01-19T14:15:56.509Z,51.65
2023-01-19T14:18:26.970Z,54.20
2023-01-19T14:21:14.259Z,48.80
2023-01-19T14:23:50.058Z,51.22
2023-01-19T14:26:43.634Z,46.47
2023-01-19T14:29:33.514Z,56.00
2023-01-19T14:32:00.670Z,57.53
2023-01-19T14:34:42.112Z,48.25
2023-01-19T14:37:28.271Z,53.30
2023-01-19T14:39:57.620Z,55.22
2023-01-19T14:42:37.873Z,49.03
2023-01-19T14:45:16.291Z,54.83
2023-01-19T14:47:45.468Z,41.75
2023-01-19T14:50:19.609Z,53.78
2023-01-19T14:53:08.333Z,54.25
2023-01-19T14:55:44.211Z,57.15
2023-01-19T14:58:13.793Z,64.40
2023-01-19T15:00:42.718Z,64.35
2023-01-19T15:03:10.242Z,54.75
2023-01-19T15:05:39.837Z,58.03
2023-01-19T15:08:07.874Z,50.42
2023-01-19T15:10:36.420Z,53.28
2023-01-19T15:13:04.881Z,65.57
2023-01-19T15:15:34.387Z,58.67
2023-01-19T15:18:04.400Z,76.38
2023-01-19T15:20:31.957Z,81.70
2023-01-19T15:22:59.166Z,63.85
2023-01-19T15:25:26.961Z,69.43
2023-01-19T15:27:58.446Z,74.07
2023-01-19T15:30:30.806Z,70.03
2023-01-19T15:32:58.960Z,64.90
2023-01-19T15:35:26.622Z,70.13
2023-01-19T15:37:54.372Z,74.70
2023-01-19T15:40:23.226Z,77.07
2023-01-19T15:42:50.851Z,70.00
2023-01-19T15:45:24.460Z,70.40
2023-01-19T15:47:51.972Z,69.45
2023-01-19T15:50:20.184Z,78.07
2023-01-19T15:52:47.406Z,78.43
2023-01-19T15:55:15.965Z,83.32
2023-01-19T15:57:43.434Z,67.88
2023-01-19T16:00:11.361Z,65.68
2023-01-19T16:02:39.418Z,75.22
2023-01-19T16:05:07.727Z,66.75
2023-01-19T16:07:35.240Z,69.05
2023-01-19T16:10:03.057Z,81.47
2023-01-19T16:12:30.304Z,65.18
2023-01-19T16:14:57.870Z,84.07
2023-01-19T16:17:25.040Z,74.43
2023-01-19T16:19:52.187Z,55.13
2023-01-19T16:22:19.652Z,62.72
2023-01-19T16:24:46.828Z,54.33
2023-01-19T16:27:14.260Z,55.78
2023-01-19T16:29:41.479Z,67.13
2023-01-19T16:32:08.992Z,57.50
2023-01-19T16:34:36.327Z,65.68
2023-01-19T16:37:03.789Z,56.28
2023-01-19T16:39:30.941Z,64.07
2023-01-19T16:41:58.417Z,65.65
2023-01-19T16:44:25.939Z,61.13
2023-01-19T16:46:54.377Z,58.13
2023-01-19T16:49:28.372Z,51.75
2023-01-19T16:51:58.369Z,56.88
2023-01-19T16:54:26.779Z,62.30
2023-01-19T16:56:55.897Z,52.65
2023-01-19T16:59:23.561Z,59.17
2023-01-19T17:01:52.029Z,63.47
2023-01-19T17:04:21.356Z,64.88
2023-01-19T17:06:49.905Z,61.42
2023-01-19T17:09:17.685Z,64.35
2023-01-19T17:11:46.018Z,62.30
2023-01-19T17:14:15.768Z,64.88
2023-01-19T17:16:44.145Z,55.00
2023-01-19T17:19:15.693Z,53.33
2023-01-19T17:21:48.833Z,56.63
2023-01-19T17:24:17.162Z,55.20
2023-01-19T17:26:46.026Z,57.67
2023-01-19T17:29:13.494Z,60.65
2023-01-19T17:31:41.198Z,58.97
2023-01-19T17:34:09.794Z,66.82
2023-01-19T17:36:38.001Z,60.63
2023-01-19T17:39:08.224Z,69.20
2023-01-19T17:41:36.204Z,69.35
2023-01-19T17:44:05.438Z,76.95
2023-01-19T17:46:36.413Z,62.85
2023-01-19T17:49:05.922Z,59.05
2023-01-19T17:51:33.742Z,69.85
2023-01-19T17:54:01.155Z,72.13
2023-01-19T17:56:32.244Z,73.45
2023-01-19T17:58:59.817Z,78.07
2023-01-19T18:01:31.882Z,82.68
2023-01-19T18:04:00.981Z,75.93
2023-01-19T18:06:28.537Z,68.18
2023-01-19T18:08:57.375Z,71.32
2023-01-19T18:11:25.490Z,73.32
2023-01-19T18:13:53.336Z,78.20
2023-01-19T18:16:26.889Z,81.65
2023-01-19T18:18:56.073Z,67.20
2023-01-19T18:21:27.553Z,69.57
2023-01-19T18:24:00.639Z,68.25
2023-01-19T18:26:29.144Z,66.07
2023-01-19T18:28:57.385Z,76.57
2023-01-19T18:31:26.173Z,74.28
2023-01-19T18:33:53.720Z,80.10
2023-01-19T18:36:21.396Z,74.47
2023-01-19T18:38:49.588Z,87.43
2023-01-19T18:41:19.040Z,92.22
2023-01-19T18:43:46.887Z,83.10
2023-01-19T18:46:15.117Z,84.60
2023-01-19T18:48:42.525Z,91.10
2023-01-19T18:51:14.509Z,95.68
2023-01-19T18:53:42.180Z,77.35
2023-01-19T18:56:12.809Z,80.32
2023-01-19T18:58:40.424Z,85.28
2023-01-19T19:01:38.124Z,75.05
2023-01-19T19:04:05.755Z,78.05
2023-01-19T19:06:34.217Z,86.60
2023-01-19T19:09:01.464Z,76.03
2023-01-19T19:11:29.045Z,90.90
2023-01-19T19:13:59.548Z,96.18
2023-01-19T19:16:28.926Z,109.63
2023-01-19T19:18:56.329Z,88.47
2023-01-19T19:21:25.391Z,86.55
2023-01-19T19:23:55.486Z,101.82
2023-01-19T19:26:24.125Z,92.30
2023-01-19T19:28:51.372Z,96.03
2023-01-19T19:31:21.205Z,93.95
2023-01-19T19:33:49.113Z,117.53
2023-01-19T19:36:17.171Z,101.15
2023-01-19T19:38:47.683Z,99.80
2023-01-19T19:41:22.116Z,88.40
2023-01-19T19:43:50.131Z,75.90
2023-01-19T19:46:20.153Z,76.85
2023-01-19T19:48:48.748Z,83.15
2023-01-19T19:51:22.676Z,80.45
2023-01-19T19:53:51.872Z,71.50
2023-01-19T19:56:22.619Z,75.53
2023-01-19T19:58:51.928Z,77.82
2023-01-19T20:01:23.994Z,80.95
2023-01-19T20:03:52.458Z,93.25
2023-01-19T20:06:22.111Z,76.63
2023-01-19T20:08:51.031Z,84.78
2023-01-19T20:11:23.486Z,87.95
2023-01-19T20:13:50.881Z,96.50
2023-01-19T20:16:20.691Z,81.25
2023-01-19T20:18:54.308Z,80.63
2023-01-19T20:21:25.517Z,80.95
2023-01-19T20:23:53.702Z,85.63
2023-01-19T20:26:25.366Z,82.47
2023-01-19T20:28:53.912Z,93.68
2023-01-19T20:31:30.569Z,96.18
2023-01-19T20:33:59.772Z,98.38
2023-01-19T20:36:28.941Z,82.40
2023-01-19T20:38:57.431Z,105.82
2023-01-19T20:41:25.705Z,86.07
2023-01-19T20:43:53.243Z,98.78
2023-01-19T20:46:21.020Z,106.65
2023-01-19T20:48:52.885Z,97.03
2023-01-19T20:53:48.404Z,86.78
2023-01-19T20:56:16.296Z,87.70
2023-01-19T20:58:43.834Z,91.57
2023-01-19T21:01:13.913Z,83.72
2023-01-19T21:03:41.816Z,98.13
2023-01-19T21:06:10.030Z,93.57
2023-01-19T21:08:38.190Z,94.25
2023-01-19T21:11:06.486Z,94.78
2023-01-19T21:13:34.417Z,99.57
2023-01-19T21:16:02.366Z,96.25
2023-01-19T21:18:29.676Z,101.90
2023-01-19T21:20:57.796Z,117.85
2023-01-19T21:23:27.344Z,125.90
2023-01-19T21:25:57.304Z,123.63
2023-01-19T21:28:25.754Z,121.65
2023-01-19T21:30:54.878Z,124.35
2023-01-19T21:33:23.052Z,127.95
2023-01-19T21:35:55.483Z,124.88
2023-01-19T21:38:23.910Z,138.10
2023-01-19T21:40:51.471Z,134.48
2023-01-19T21:43:20.048Z,134.18
2023-01-19T21:45:48.872Z,134.73
2023-01-19T21:48:17.249Z,137.57
2023-01-19T21:50:45.021Z,136.95
2023-01-19T21:53:12.416Z,131.40
2023-01-19T21:55:44.631Z,143.07
2023-01-19T21:58:11.800Z,140.10
2023-01-19T22:00:39.370Z,141.40
2023-01-19T22:03:06.579Z,140.68
2023-01-19T22:05:36.780Z,134.82
2023-01-19T22:08:06.338Z,128.38
2023-01-19T22:10:37.816Z,143.65
2023-01-19T22:13:06.766Z,128.45
2023-01-19T22:15:34.414Z,133.98
2023-01-19T22:18:01.738Z,132.05
2023-01-19T22:20:29.314Z,138.20
2023-01-19T22:22:57.241Z,124.13
2023-01-19T22:25:27.583Z,120.22
2023-01-19T22:27:55.810Z,135.60
2023-01-19T22:30:23.618Z,121.05
2023-01-19T22:32:50.855Z,119.28
2023-01-19T22:35:18.453Z,127.30
2023-01-19T22:37:45.575Z,109.78
2023-01-19T22:40:13.224Z,110.75
2023-01-19T22:42:40.454Z,107.57
2023-01-19T22:45:08.539Z,109.68
2023-01-19T22:47:38.779Z,117.47
2023-01-19T22:50:06.891Z,107.15
2023-01-19T22:52:34.116Z,106.65
2023-01-19T22:55:01.492Z,103.63
2023-01-19T22:57:34.309Z,103.22
2023-01-19T23:00:02.098Z,100.80
2023-01-19T23:02:29.293Z,104.63
2023-01-19T23:04:56.782Z,103.95
2023-01-19T23:07:24.095Z,98.53
2023-01-19T23:09:51.535Z,95.30
2023-01-19T23:12:18.734Z,111.13
2023-01-19T23:14:46.170Z,103.75
2023-01-19T23:17:13.312Z,95.57
2023-01-19T23:19:40.749Z,90.55
2023-01-19T23:22:08.060Z,85.70
2023-01-19T23:24:35.848Z,86.45
2023-01-19T23:27:03.130Z,74.60
2023-01-19T23:29:30.777Z,68.88
2023-01-19T23:31:58.070Z,70.18
2023-01-19T23:34:25.794Z,81.70
2023-01-19T23:36:52.961Z,73.40
2023-01-19T23:39:22.797Z,64.00
2023-01-19T23:41:50.308Z,68.50
2023-01-19T23:44:18.320Z,63.90
2023-01-19T23:46:46.559Z,63.33
2023-01-19T23:49:14.212Z,67.40
2023-01-19T23:51:41.818Z,58.85
2023-01-19T23:54:09.314Z,66.53
2023-01-19T23:56:38.268Z,65.47
2023-01-19T23:59:08.644Z,57.63
